Time;durP1;ratioP1;P1;durP2;ratioP2;P2;SDS_P1;SDS_P2;PMS_P1;PMS_P2;Temp;Humidity;BMP_temperature;BMP_pressure;BME280_temperature;BME280_humidity;BME280_pressure;Samples;Min_cycle;Max_cycle;Signal;HPM_P1;HPM_P2
2022/06/04 00:00:27;;;;;;;4.87;3.80;;;18.90;99.90;;;;;;4979605;28;20852;-84
2022/06/04 00:02:53;;;;;;;4.87;3.90;;;18.90;99.90;;;;;;4979419;28;20425;-84
2022/06/04 00:05:22;;;;;;;5.20;3.80;;;18.80;99.90;;;;;;4979612;28;20428;-85
2022/06/04 00:07:52;;;;;;;4.10;3.50;;;18.80;99.90;;;;;;4979292;28;20447;-85
2022/06/04 00:15:58;;;;;;;4.37;3.97;;;18.80;99.90;;;;;;4997099;28;20792;-84
2022/06/04 00:18:24;;;;;;;4.77;4.00;;;18.80;99.90;;;;;;4996596;28;20448;-86
2022/06/04 00:20:52;;;;;;;5.57;3.70;;;18.70;99.90;;;;;;4979036;28;20455;-85
2022/06/04 00:23:18;;;;;;;4.00;3.10;;;18.70;99.90;;;;;;4978854;28;20468;-85
2022/06/04 00:25:49;;;;;;;4.73;3.90;;;18.70;99.90;;;;;;4978893;28;20424;-85
2022/06/04 00:28:15;;;;;;;4.13;3.53;;;18.70;99.90;;;;;;4979000;28;20456;-85
2022/06/04 00:30:41;;;;;;;5.00;3.87;;;18.70;99.90;;;;;;4978915;28;20481;-85
2022/06/04 00:33:07;;;;;;;4.20;3.73;;;18.70;99.90;;;;;;4978829;28;20429;-85
2022/06/04 00:35:34;;;;;;;4.30;3.73;;;18.70;99.90;;;;;;4978885;28;20485;-85
2022/06/04 00:38:01;;;;;;;4.50;3.87;;;18.70;99.90;;;;;;4978670;28;20441;-84
2022/06/04 00:40:39;;;;;;;4.70;3.77;;;18.70;99.90;;;;;;4978763;28;20436;-85
2022/06/04 00:43:05;;;;;;;5.20;4.00;;;18.70;99.90;;;;;;4978704;28;20417;-85
2022/06/04 00:45:34;;;;;;;4.40;3.47;;;18.60;99.90;;;;;;4995077;28;20432;-85
2022/06/04 00:48:08;;;;;;;7.30;3.90;;;18.60;99.90;;;;;;4978770;28;20202;-85
2022/06/04 00:50:38;;;;;;;4.77;3.60;;;18.60;99.90;;;;;;4978506;28;20553;-85
2022/06/04 00:53:08;;;;;;;5.80;4.00;;;18.50;99.90;;;;;;4978453;28;20921;-85
2022/06/04 00:55:58;;;;;;;5.77;4.03;;;18.60;99.90;;;;;;4978693;28;20511;-85
2022/06/04 00:58:51;;;;;;;5.40;3.80;;;18.60;99.90;;;;;;4978344;28;20460;-85
2022/06/04 01:01:24;;;;;;;5.00;3.80;;;18.60;99.90;;;;;;4978032;28;20424;-85
2022/06/04 01:07:48;;;;;;;5.03;3.93;;;18.60;99.90;;;;;;4983497;28;20825;-85
2022/06/04 01:10:32;;;;;;;4.50;3.27;;;18.60;99.90;;;;;;4978088;28;20476;-85
2022/06/04 01:13:16;;;;;;;3.87;3.47;;;18.60;99.90;;;;;;4978159;28;20428;-85
2022/06/04 01:16:11;;;;;;;5.03;3.40;;;18.60;99.90;;;;;;4978036;28;20959;-85
2022/06/04 01:18:42;;;;;;;4.63;4.13;;;18.50;99.90;;;;;;4977917;28;21027;-85
2022/06/04 01:21:30;;;;;;;4.00;3.40;;;18.50;99.90;;;;;;4977924;28;20437;-84
2022/06/04 01:24:21;;;;;;;4.60;3.97;;;18.50;99.90;;;;;;4977793;28;20516;-85
2022/06/04 01:27:14;;;;;;;4.13;3.07;;;18.50;99.90;;;;;;4977545;28;20469;-85
2022/06/04 01:29:52;;;;;;;4.57;3.67;;;18.50;99.90;;;;;;4977750;28;20534;-85
2022/06/04 01:32:22;;;;;;;5.00;3.70;;;18.40;99.90;;;;;;4977553;28;20427;-87
2022/06/04 01:34:55;;;;;;;4.33;3.40;;;18.40;99.90;;;;;;4977618;28;20420;-84
2022/06/04 01:37:34;;;;;;;5.83;4.00;;;18.40;99.90;;;;;;4977460;28;20817;-84
2022/06/04 01:42:48;;;;;;;5.23;4.13;;;18.30;99.90;;;;;;4995687;28;20914;-85
2022/06/04 01:45:18;;;;;;;4.33;3.70;;;18.30;99.90;;;;;;4978702;28;20425;-87
2022/06/04 01:47:46;;;;;;;4.10;3.50;;;18.30;99.90;;;;;;4979648;28;20765;-84
2022/06/04 01:50:18;;;;;;;5.00;3.90;;;18.30;99.90;;;;;;4979153;28;20468;-85
2022/06/04 01:52:46;;;;;;;4.80;3.80;;;18.20;99.90;;;;;;4978865;28;20425;-85
2022/06/04 01:55:15;;;;;;;4.10;3.70;;;18.20;99.90;;;;;;4978600;28;20519;-85
2022/06/04 01:58:03;;;;;;;5.10;3.27;;;18.20;99.90;;;;;;4978908;28;20838;-84
2022/06/04 02:00:46;;;;;;;6.27;3.50;;;18.10;99.90;;;;;;4978564;28;20447;-85
2022/06/04 02:03:20;;;;;;;4.10;3.50;;;18.20;99.90;;;;;;4977282;28;20429;-85
2022/06/04 02:05:56;;;;;;;6.77;3.73;;;18.20;99.90;;;;;;4976863;28;20809;-85
2022/06/04 02:08:33;;;;;;;4.13;3.43;;;18.20;99.90;;;;;;4976846;28;20471;-84
2022/06/04 02:11:11;;;;;;;6.83;3.63;;;18.20;99.90;;;;;;4976893;28;20849;-84
2022/06/04 02:13:39;;;;;;;4.73;3.30;;;18.20;99.90;;;;;;4976761;28;20420;-85
2022/06/04 02:16:09;;;;;;;4.03;3.00;;;18.20;99.90;;;;;;4976706;28;20424;-85
2022/06/04 02:18:37;;;;;;;4.70;3.53;;;18.30;99.90;;;;;;4976152;28;20468;-85
2022/06/04 02:21:03;;;;;;;3.57;3.00;;;18.20;99.90;;;;;;4976941;28;20432;-84
2022/06/04 02:23:29;;;;;;;4.27;3.53;;;18.30;99.90;;;;;;4976754;28;20425;-84
2022/06/04 02:25:56;;;;;;;4.50;3.50;;;18.20;99.90;;;;;;4976576;28;20432;-84
2022/06/04 02:28:23;;;;;;;3.93;3.37;;;18.20;99.90;;;;;;4976658;28;20496;-85
2022/06/04 02:31:17;;;;;;;6.53;3.13;;;18.20;99.90;;;;;;4976398;28;20476;-85
2022/06/04 02:33:43;;;;;;;4.53;3.23;;;18.20;99.90;;;;;;4976565;28;20421;-84
2022/06/04 02:36:23;;;;;;;4.00;3.47;;;18.20;99.90;;;;;;4976543;28;20431;-85
2022/06/04 02:39:01;;;;;;;3.20;2.53;;;18.20;99.90;;;;;;4976238;28;20209;-84
2022/06/04 02:41:37;;;;;;;5.07;3.17;;;18.20;99.90;;;;;;4976447;28;20793;-84
2022/06/04 02:44:26;;;;;;;4.20;3.37;;;18.20;99.90;;;;;;4976283;28;20880;-84
2022/06/04 02:47:10;;;;;;;4.90;3.53;;;18.20;99.90;;;;;;4976162;28;20425;-85
2022/06/04 02:50:02;;;;;;;5.50;3.23;;;18.10;99.90;;;;;;4976115;28;21022;-84
2022/06/04 02:52:31;;;;;;;3.90;2.90;;;18.10;99.90;;;;;;4974805;28;20523;-85
2022/06/04 02:55:20;;;;;;;4.67;3.07;;;18.00;99.90;;;;;;4976049;28;20431;-85
2022/06/04 02:57:50;;;;;;;4.37;3.40;;;18.00;99.90;;;;;;4975934;28;20445;-86
2022/06/04 03:00:21;;;;;;;4.73;3.40;;;18.00;99.90;;;;;;4976076;28;20886;-84
2022/06/04 03:02:48;;;;;;;4.33;3.30;;;18.00;99.90;;;;;;4976183;28;20417;-85
2022/06/04 03:05:18;;;;;;;4.37;3.30;;;17.90;99.90;;;;;;4976034;28;20471;-84
2022/06/04 03:07:47;;;;;;;3.93;3.17;;;17.90;99.90;;;;;;4975871;28;20536;-85
2022/06/04 03:10:19;;;;;;;4.17;3.43;;;17.80;99.90;;;;;;4975899;28;20469;-84
2022/06/04 03:12:47;;;;;;;4.57;3.50;;;17.70;99.90;;;;;;4975711;28;20425;-85
2022/06/04 03:15:13;;;;;;;5.00;3.70;;;17.70;99.90;;;;;;4975779;28;20484;-84
2022/06/04 03:17:41;;;;;;;4.70;3.60;;;17.60;99.90;;;;;;4991918;28;20531;-84
2022/06/04 03:20:08;;;;;;;4.50;3.60;;;17.60;99.90;;;;;;4975470;28;20449;-84
2022/06/04 03:22:34;;;;;;;4.40;3.50;;;17.60;99.90;;;;;;4975989;28;20428;-84
2022/06/04 03:25:00;;;;;;;4.70;3.60;;;17.60;99.90;;;;;;4975702;28;20417;-84
2022/06/04 03:27:26;;;;;;;5.10;3.20;;;17.50;99.90;;;;;;4991669;28;20516;-85
2022/06/04 03:29:52;;;;;;;5.27;3.80;;;17.50;99.90;;;;;;4991641;28;20563;-85
2022/06/04 03:32:18;;;;;;;3.97;3.50;;;17.40;99.90;;;;;;4991904;28;20181;-85
2022/06/04 03:34:43;;;;;;;5.33;3.57;;;17.40;99.90;;;;;;4991821;28;20638;-86
2022/06/04 03:37:09;;;;;;;5.93;3.80;;;17.40;99.90;;;;;;4991728;28;20309;-84
2022/06/04 03:39:35;;;;;;;5.30;3.43;;;17.40;99.90;;;;;;4991998;28;20186;-84
2022/06/04 03:42:01;;;;;;;5.30;3.70;;;17.40;99.90;;;;;;4975540;28;20195;-84
2022/06/04 03:44:27;;;;;;;4.60;3.60;;;17.40;99.90;;;;;;4991638;28;20195;-85
2022/06/04 03:46:53;;;;;;;5.70;3.30;;;17.30;99.90;;;;;;4975368;28;20196;-84
2022/06/04 03:49:20;;;;;;;7.20;3.70;;;17.30;99.90;;;;;;4975356;28;20425;-84
2022/06/04 03:51:46;;;;;;;4.20;3.27;;;17.20;99.90;;;;;;4975315;28;20479;-85
2022/06/04 03:54:12;;;;;;;6.97;3.90;;;17.30;99.90;;;;;;4991654;28;20431;-84
2022/06/04 03:56:38;;;;;;;4.60;3.80;;;17.30;99.90;;;;;;4991536;28;20519;-84
2022/06/04 03:59:04;;;;;;;5.30;3.10;;;17.30;99.90;;;;;;4991348;28;20804;-84
2022/06/04 04:01:30;;;;;;;5.63;3.47;;;17.30;99.90;;;;;;4991766;28;20232;-84
2022/06/04 04:03:58;;;;;;;4.57;3.30;;;17.20;99.90;;;;;;4991794;28;20451;-84
2022/06/04 04:06:28;;;;;;;4.60;3.50;;;17.30;99.90;;;;;;4975434;28;20424;-85
2022/06/04 04:08:54;;;;;;;4.63;3.60;;;17.20;99.90;;;;;;4975428;28;20960;-84
2022/06/04 04:11:22;;;;;;;4.00;2.83;;;17.30;99.90;;;;;;4991449;28;20474;-85
2022/06/04 04:13:51;;;;;;;4.70;3.07;;;17.30;99.90;;;;;;4975358;28;20986;-84
2022/06/04 04:16:18;;;;;;;5.07;3.43;;;17.30;99.90;;;;;;4975341;28;20421;-85
2022/06/04 04:18:43;;;;;;;3.73;3.20;;;17.20;99.90;;;;;;4975082;28;20441;-84
2022/06/04 04:21:20;;;;;;;3.90;2.97;;;17.20;99.90;;;;;;4991336;28;20800;-85
2022/06/04 04:23:46;;;;;;;4.10;2.97;;;17.20;99.90;;;;;;4975305;28;20664;-84
2022/06/04 04:26:14;;;;;;;4.53;3.07;;;17.20;99.90;;;;;;4975219;28;20523;-84
2022/06/04 04:28:40;;;;;;;5.00;3.40;;;17.20;99.90;;;;;;4975152;28;20452;-84
2022/06/04 04:31:26;;;;;;;4.70;3.10;;;17.20;99.90;;;;;;4975140;28;21122;-84
2022/06/04 04:33:52;;;;;;;4.30;3.27;;;17.30;99.90;;;;;;4991595;28;20517;-84
2022/06/04 04:36:18;;;;;;;4.33;3.47;;;17.30;99.90;;;;;;4976157;28;20425;-84
2022/06/04 04:38:44;;;;;;;3.33;2.33;;;17.30;99.90;;;;;;4976261;28;20459;-85
2022/06/04 04:41:11;;;;;;;6.63;3.00;;;17.40;99.90;;;;;;4994332;28;20487;-85
2022/06/04 04:43:38;;;;;;;4.50;3.30;;;17.50;99.90;;;;;;4979557;28;20508;-86
2022/06/04 04:46:08;;;;;;;5.00;3.27;;;17.50;99.90;;;;;;4979474;28;20519;-85
2022/06/04 04:48:34;;;;;;;4.13;3.07;;;17.50;99.90;;;;;;4979394;28;20499;-85
2022/06/04 04:51:00;;;;;;;4.33;3.20;;;17.50;99.90;;;;;;4978990;28;20468;-84
2022/06/04 04:53:26;;;;;;;4.93;3.43;;;17.50;99.90;;;;;;4995588;28;20423;-85
2022/06/04 04:55:53;;;;;;;4.50;2.93;;;17.60;99.90;;;;;;4995677;28;20598;-85
2022/06/04 04:58:18;;;;;;;4.10;3.30;;;17.60;99.90;;;;;;4995670;28;21027;-85
2022/06/04 05:00:44;;;;;;;3.90;2.80;;;17.60;99.90;;;;;;4995387;28;20520;-85
2022/06/04 05:03:10;;;;;;;3.83;2.87;;;17.70;99.90;;;;;;4979162;28;20272;-85
2022/06/04 05:05:36;;;;;;;4.40;3.10;;;17.70;99.90;;;;;;4978867;28;20464;-85
2022/06/04 05:08:03;;;;;;;5.43;2.60;;;17.80;99.90;;;;;;4978982;28;20444;-85
2022/06/04 05:10:29;;;;;;;4.77;3.43;;;17.80;99.90;;;;;;4995188;28;20464;-84
2022/06/04 05:12:56;;;;;;;5.10;3.00;;;17.90;99.90;;;;;;4995175;28;20439;-85
2022/06/04 05:15:22;;;;;;;5.50;2.90;;;18.00;99.90;;;;;;4978491;28;20192;-85
2022/06/04 05:17:48;;;;;;;3.67;3.23;;;18.10;99.90;;;;;;4978297;28;20491;-84
2022/06/04 05:20:14;;;;;;;3.77;2.87;;;18.20;99.90;;;;;;4978376;28;20449;-84
2022/06/04 05:22:41;;;;;;;4.80;3.00;;;18.30;99.90;;;;;;4994664;28;20807;-85
2022/06/04 05:25:08;;;;;;;4.40;3.37;;;18.40;99.90;;;;;;4994665;28;20432;-85
2022/06/04 05:27:33;;;;;;;5.00;3.90;;;18.40;99.90;;;;;;4994395;28;20447;-84
2022/06/04 05:29:59;;;;;;;4.40;3.00;;;18.40;99.90;;;;;;4994177;28;20464;-85
2022/06/04 05:32:25;;;;;;;5.07;3.53;;;18.40;99.90;;;;;;4994441;28;20185;-84
2022/06/04 05:34:51;;;;;;;4.60;3.83;;;18.50;99.90;;;;;;4994242;28;20232;-84
2022/06/04 05:37:17;;;;;;;3.90;2.87;;;18.50;99.90;;;;;;4994020;28;20205;-85
2022/06/04 05:39:43;;;;;;;4.37;3.37;;;18.60;99.90;;;;;;4994190;28;20528;-86
2022/06/04 05:42:10;;;;;;;4.20;3.10;;;18.70;99.90;;;;;;4994161;28;20568;-85
2022/06/04 05:44:36;;;;;;;4.67;2.90;;;18.70;99.90;;;;;;4978300;28;20491;-85
2022/06/04 05:47:04;;;;;;;3.80;2.73;;;18.80;99.90;;;;;;4993981;28;20932;-84
2022/06/04 05:49:30;;;;;;;4.57;3.43;;;18.90;99.90;;;;;;4993958;28;20327;-84
2022/06/04 05:51:56;;;;;;;6.10;3.60;;;19.10;99.90;;;;;;4992814;28;20508;-85
2022/06/04 05:54:22;;;;;;;5.33;3.90;;;19.10;99.90;;;;;;4993726;28;20227;-85
2022/06/04 05:56:50;;;;;;;4.50;3.40;;;19.30;99.90;;;;;;4993649;28;20182;-84
2022/06/04 05:59:19;;;;;;;4.63;3.50;;;19.40;99.90;;;;;;4977645;28;20422;-85
2022/06/04 06:01:45;;;;;;;5.67;3.83;;;19.40;99.90;;;;;;4977326;28;20413;-84
2022/06/04 06:04:13;;;;;;;5.97;3.67;;;19.50;99.90;;;;;;4993683;28;20431;-85
2022/06/04 06:06:42;;;;;;;6.50;4.00;;;19.50;99.90;;;;;;4977371;28;20189;-85
2022/06/04 06:09:10;;;;;;;4.87;3.57;;;19.60;99.90;;;;;;4977267;28;20818;-85
2022/06/04 06:11:36;;;;;;;4.63;2.70;;;19.70;99.90;;;;;;4977222;28;20461;-85
2022/06/04 06:14:02;;;;;;;4.60;3.30;;;19.80;99.90;;;;;;4977214;28;20511;-85
2022/06/04 06:16:32;;;;;;;4.97;3.63;;;19.90;99.90;;;;;;4993431;28;20495;-87
2022/06/04 06:18:58;;;;;;;5.67;3.57;;;19.90;99.90;;;;;;4993227;28;20217;-85
2022/06/04 06:21:27;;;;;;;8.53;4.10;;;20.00;99.90;;;;;;4977470;28;20409;-85
2022/06/04 06:23:57;;;;;;;5.77;3.67;;;20.10;99.90;;;;;;4977503;28;20420;-85
2022/06/04 06:26:28;;;;;;;5.93;3.40;;;20.20;99.90;;;;;;4977078;28;20425;-84
2022/06/04 06:28:54;;;;;;;5.50;3.43;;;20.20;99.90;;;;;;4977122;28;20440;-86
2022/06/04 06:31:23;;;;;;;4.50;3.80;;;20.40;99.90;;;;;;4992775;28;20496;-87
2022/06/04 06:33:50;;;;;;;3.73;2.60;;;20.40;99.90;;;;;;4976800;28;20798;-85
2022/06/04 06:36:17;;;;;;;4.50;3.27;;;20.50;99.90;;;;;;4976590;28;20437;-84
2022/06/04 06:38:45;;;;;;;4.60;3.00;;;20.60;99.90;;;;;;4976497;28;20495;-85
2022/06/04 06:41:13;;;;;;;3.97;3.30;;;20.70;99.90;;;;;;4976939;28;20429;-85
2022/06/04 06:43:52;;;;;;;6.30;3.33;;;20.80;99.90;;;;;;4976790;28;20421;-85
2022/06/04 06:46:22;;;;;;;4.50;3.77;;;20.80;99.90;;;;;;4976502;28;20417;-85
2022/06/04 06:49:11;;;;;;;3.97;3.20;;;20.90;99.90;;;;;;4976411;28;20500;-85
2022/06/04 06:51:41;;;;;;;4.80;3.57;;;21.00;99.90;;;;;;4976327;28;20469;-86
2022/06/04 06:54:08;;;;;;;4.63;3.50;;;21.00;99.90;;;;;;4976950;28;20848;-86
2022/06/04 06:56:37;;;;;;;5.70;3.97;;;21.10;99.90;;;;;;4976231;28;20516;-85
2022/06/04 06:59:04;;;;;;;4.63;3.40;;;21.20;99.90;;;;;;4976074;28;20963;-85
2022/06/04 07:01:31;;;;;;;4.80;3.90;;;21.30;99.90;;;;;;4976714;28;20879;-85
2022/06/04 07:04:01;;;;;;;4.43;3.50;;;21.30;99.90;;;;;;4975997;28;20449;-84
2022/06/04 07:06:32;;;;;;;4.30;3.43;;;21.30;99.90;;;;;;4992370;28;20433;-85
2022/06/04 07:08:59;;;;;;;6.77;4.10;;;21.40;99.90;;;;;;4976550;28;20480;-85
2022/06/04 07:11:25;;;;;;;4.50;3.80;;;21.50;99.90;;;;;;4975863;28;20468;-85
2022/06/04 07:13:52;;;;;;;4.50;3.50;;;21.50;99.90;;;;;;4976124;28;20416;-86
2022/06/04 07:16:18;;;;;;;6.50;4.03;;;21.50;99.90;;;;;;4976170;28;20517;-86
2022/06/04 07:18:44;;;;;;;4.07;2.90;;;21.70;99.90;;;;;;4991594;28;20527;-84
2022/06/04 07:21:09;;;;;;;5.63;3.70;;;21.80;99.90;;;;;;4991944;28;20243;-84
2022/06/04 07:23:36;;;;;;;7.37;4.00;;;22.00;99.90;;;;;;4992033;28;20568;-84
2022/06/04 07:26:04;;;;;;;4.03;3.23;;;22.10;99.90;;;;;;4992244;28;20237;-85
2022/06/04 07:28:30;;;;;;;6.43;3.40;;;22.20;99.90;;;;;;4994145;28;21073;-85
2022/06/04 07:30:56;;;;;;;6.00;4.00;;;22.20;99.90;;;;;;4976790;28;20460;-85
2022/06/04 07:33:22;;;;;;;5.97;3.60;;;22.20;99.90;;;;;;4993543;28;20428;-85
2022/06/04 07:35:49;;;;;;;4.90;3.43;;;22.30;99.90;;;;;;4995334;28;20629;-86
2022/06/04 07:38:16;;;;;;;5.83;3.90;;;22.20;99.90;;;;;;4978235;28;20445;-85
2022/06/04 07:40:43;;;;;;;6.10;3.67;;;22.20;99.90;;;;;;4975662;28;20421;-85
2022/06/04 07:43:09;;;;;;;5.17;3.60;;;22.20;99.90;;;;;;4975798;28;20451;-85
2022/06/04 07:45:35;;;;;;;5.20;4.00;;;22.20;99.90;;;;;;4975295;28;20813;-84
2022/06/04 07:48:02;;;;;;;5.10;3.40;;;22.30;99.90;;;;;;4975482;28;20433;-85
2022/06/04 07:50:28;;;;;;;5.80;3.57;;;22.40;99.90;;;;;;4975421;28;20209;-85
2022/06/04 07:52:55;;;;;;;6.47;3.67;;;22.40;99.90;;;;;;4991656;28;20409;-85
2022/06/04 07:55:21;;;;;;;4.30;3.57;;;22.40;99.90;;;;;;4975532;28;20981;-85
2022/06/04 07:57:48;;;;;;;6.73;3.70;;;22.50;99.90;;;;;;4991388;28;20456;-85
2022/06/04 08:00:15;;;;;;;3.93;3.37;;;22.50;99.90;;;;;;4991628;28;20709;-84
2022/06/04 08:02:42;;;;;;;6.83;3.87;;;22.60;99.90;;;;;;4975488;28;20417;-85
2022/06/04 08:05:09;;;;;;;5.67;3.77;;;22.50;99.90;;;;;;4991512;28;20432;-85
2022/06/04 08:07:36;;;;;;;4.97;3.80;;;22.50;99.90;;;;;;4975127;28;20499;-86
2022/06/04 08:10:04;;;;;;;7.57;3.70;;;22.70;99.90;;;;;;4991524;28;20838;-85
2022/06/04 08:12:33;;;;;;;4.80;3.77;;;22.70;99.90;;;;;;4975333;28;20408;-84
2022/06/04 08:14:59;;;;;;;4.47;3.70;;;22.80;99.90;;;;;;4976068;28;20429;-86
2022/06/04 08:17:26;;;;;;;4.80;3.50;;;22.90;99.90;;;;;;4995381;28;20444;-85
2022/06/04 08:19:52;;;;;;;8.00;4.27;;;23.00;99.90;;;;;;4979067;28;20984;-84
2022/06/04 08:22:18;;;;;;;4.40;3.30;;;23.20;99.90;;;;;;4979391;28;20420;-85
2022/06/04 08:24:47;;;;;;;5.10;3.47;;;23.50;99.90;;;;;;4995239;28;20439;-86
2022/06/04 08:27:13;;;;;;;4.00;3.37;;;23.80;99.90;;;;;;4995015;28;20452;-85
2022/06/04 08:29:39;;;;;;;5.10;3.70;;;24.10;99.90;;;;;;4995186;28;20420;-85
2022/06/04 08:32:05;;;;;;;4.50;4.10;;;24.30;99.90;;;;;;4995046;28;20272;-85
2022/06/04 08:34:32;;;;;;;5.37;3.50;;;24.60;99.90;;;;;;4979047;28;20417;-85
2022/06/04 08:36:59;;;;;;;4.97;3.70;;;25.00;99.90;;;;;;4978561;28;20935;-85
2022/06/04 08:39:27;;;;;;;3.87;3.40;;;25.40;99.90;;;;;;4978945;28;20640;-86
2022/06/04 08:42:11;;;;;;;4.90;3.70;;;26.20;99.90;;;;;;4978726;28;20494;-85
2022/06/04 08:44:51;;;;;;;5.60;3.83;;;26.90;99.90;;;;;;4978631;28;20807;-85
2022/06/04 08:47:30;;;;;;;5.13;3.90;;;27.30;99.90;;;;;;4978456;28;20441;-86
2022/06/04 08:50:02;;;;;;;5.13;3.63;;;27.10;99.90;;;;;;4978770;28;20464;-86
2022/06/04 08:53:01;;;;;;;5.57;4.13;;;26.60;99.90;;;;;;4978552;28;20420;-85
2022/06/04 08:58:27;;;;;;;4.63;4.13;;;26.60;99.90;;;;;;4996103;28;21021;-86
2022/06/04 09:01:08;;;;;;;5.87;3.83;;;27.80;99.90;;;;;;4978451;28;20425;-86
2022/06/04 09:03:40;;;;;;;4.77;4.13;;;28.70;99.90;;;;;;4978477;28;21030;-85
2022/06/04 09:06:24;;;;;;;8.73;4.40;;;29.40;99.90;;;;;;4978321;28;20428;-86
2022/06/04 09:08:53;;;;;;;5.47;3.83;;;29.60;99.60;;;;;;4978213;28;20448;-86
2022/06/04 09:11:34;;;;;;;4.50;3.63;;;29.50;99.70;;;;;;4978071;28;20995;-86
2022/06/04 09:14:23;;;;;;;5.03;3.53;;;29.20;99.50;;;;;;4978323;28;20875;-86
2022/06/04 09:16:57;;;;;;;4.40;3.80;;;28.60;99.10;;;;;;4977510;28;20447;-86
2022/06/04 09:19:36;;;;;;;4.93;3.50;;;28.10;98.80;;;;;;4977999;28;20444;-86
2022/06/04 09:22:18;;;;;;;6.70;4.53;;;27.60;99.90;;;;;;4978195;28;20486;-85
2022/06/04 09:24:43;;;;;;;6.00;4.30;;;27.30;99.90;;;;;;4978240;28;20420;-85
2022/06/04 09:27:33;;;;;;;4.40;3.70;;;27.00;99.90;;;;;;4993733;28;21027;-86
2022/06/04 09:30:02;;;;;;;6.40;4.20;;;26.80;99.90;;;;;;4978000;28;20202;-86
2022/06/04 09:32:47;;;;;;;5.60;4.73;;;26.80;99.90;;;;;;4977727;28;20429;-86
2022/06/04 09:35:17;;;;;;;5.30;3.50;;;26.60;99.90;;;;;;4977996;28;20458;-84
2022/06/04 09:37:48;;;;;;;6.70;5.03;;;26.50;99.90;;;;;;4977760;28;20433;-86
2022/06/04 09:40:30;;;;;;;8.43;4.00;;;26.60;99.90;;;;;;4977867;28;20487;-86
2022/06/04 09:43:16;;;;;;;5.90;4.27;;;27.00;99.90;;;;;;4977744;28;20423;-86
2022/06/04 09:45:52;;;;;;;5.53;4.37;;;26.90;99.90;;;;;;4977639;28;20432;-86
2022/06/04 09:48:29;;;;;;;5.10;3.80;;;26.60;99.90;;;;;;5001308;23;20499;-78
2022/06/04 09:51:14;;;;;;;4.57;3.60;;;26.50;99.90;;;;;;5001977;28;20474;-78
2022/06/04 09:53:46;;;;;;;4.30;3.90;;;26.50;99.90;;;;;;5019545;28;20926;-78
2022/06/04 09:56:28;;;;;;;4.73;4.00;;;26.40;99.90;;;;;;5015470;28;20426;-77
2022/06/04 09:58:53;;;;;;;11.23;4.30;;;26.60;99.90;;;;;;5014775;28;20440;-77
2022/06/04 10:01:21;;;;;;;6.63;5.30;;;26.80;99.90;;;;;;5014396;28;20442;-77
2022/06/04 10:04:02;;;;;;;4.47;3.83;;;26.90;99.90;;;;;;4996725;28;20188;-77
2022/06/04 10:06:28;;;;;;;7.90;4.70;;;26.80;99.90;;;;;;5013831;28;20432;-77
2022/06/04 10:12:16;;;;;;;5.57;4.43;;;27.60;99.90;;;;;;5014913;28;20759;-77
2022/06/04 10:14:56;;;;;;;5.90;3.80;;;28.00;99.90;;;;;;5014094;28;20427;-77
2022/06/04 10:17:34;;;;;;;5.00;3.90;;;28.60;99.90;;;;;;5013436;28;20704;-77
2022/06/04 10:19:59;;;;;;;4.13;3.67;;;29.40;99.20;;;;;;5013905;28;20434;-77
2022/06/04 10:22:26;;;;;;;5.00;4.17;;;30.10;98.00;;;;;;5013879;28;20974;-77
2022/06/04 10:24:55;;;;;;;4.50;3.80;;;30.60;95.50;;;;;;5013682;28;20559;-78
2022/06/04 10:27:32;;;;;;;6.90;4.70;;;31.10;94.60;;;;;;5015038;28;20484;-78
2022/06/04 10:30:22;;;;;;;5.10;4.47;;;32.10;94.30;;;;;;5001587;28;20463;-79
2022/06/04 10:33:26;;;;;;;4.40;4.00;;;33.40;90.20;;;;;;5018386;28;20444;-78
2022/06/04 10:36:01;;;;;;;5.03;4.53;;;34.00;79.90;;;;;;5020325;28;20472;-78
2022/06/04 10:38:52;;;;;;;5.37;4.30;;;33.70;74.10;;;;;;5019194;28;20946;-78
2022/06/04 10:41:41;;;;;;;5.30;4.53;;;33.40;72.40;;;;;;5020810;28;20471;-78
2022/06/04 10:44:19;;;;;;;4.27;3.80;;;33.00;73.70;;;;;;5019783;28;20445;-78
2022/06/04 10:46:48;;;;;;;5.27;4.73;;;31.90;73.60;;;;;;5020079;28;20416;-78
2022/06/04 10:49:42;;;;;;;4.30;3.90;;;31.30;75.30;;;;;;5018919;28;20487;-78
2022/06/04 10:52:27;;;;;;;4.90;4.07;;;30.90;79.20;;;;;;5020031;28;20439;-78
2022/06/04 10:55:11;;;;;;;5.10;4.33;;;30.80;80.50;;;;;;5018996;28;20498;-78
2022/06/04 10:57:58;;;;;;;5.80;4.83;;;30.70;80.50;;;;;;5019115;28;20432;-78
2022/06/04 11:00:41;;;;;;;4.90;4.00;;;30.10;83.70;;;;;;5019678;28;20915;-78
2022/06/04 11:03:33;;;;;;;5.70;4.23;;;30.10;85.60;;;;;;5001531;28;20962;-78
2022/06/04 11:06:06;;;;;;;5.00;3.77;;;30.10;90.30;;;;;;5017867;28;20451;-79
2022/06/04 11:08:48;;;;;;;6.93;5.43;;;30.10;91.40;;;;;;5018245;28;20424;-78
2022/06/04 11:11:32;;;;;;;6.20;5.60;;;30.10;90.60;;;;;;5018125;28;20448;-78
2022/06/04 11:14:10;;;;;;;5.93;4.30;;;29.60;90.10;;;;;;5018434;28;20979;-78
2022/06/04 11:16:45;;;;;;;6.60;5.70;;;29.50;92.00;;;;;;5018141;28;20753;-78
2022/06/04 11:19:37;;;;;;;5.37;4.17;;;29.20;92.40;;;;;;5017519;28;20454;-77
2022/06/04 11:22:12;;;;;;;5.30;4.20;;;29.10;92.60;;;;;;5017397;28;20416;-79
2022/06/04 11:24:51;;;;;;;4.77;4.30;;;29.00;95.60;;;;;;5017211;28;20508;-78
2022/06/04 11:27:33;;;;;;;6.37;4.57;;;28.70;95.80;;;;;;5016553;28;20412;-78
2022/06/04 11:30:01;;;;;;;5.20;4.67;;;28.70;96.50;;;;;;5016950;28;20443;-79
2022/06/04 11:32:42;;;;;;;5.53;4.40;;;28.50;96.80;;;;;;5016939;28;20635;-79
2022/06/04 11:35:20;;;;;;;6.50;4.97;;;28.40;97.70;;;;;;5016813;28;20562;-78
2022/06/04 11:38:10;;;;;;;5.57;5.07;;;28.30;95.40;;;;;;5016891;28;20504;-78
2022/06/04 11:40:35;;;;;;;5.07;4.03;;;28.10;98.10;;;;;;5016469;28;20830;-78
2022/06/04 11:43:10;;;;;;;5.10;4.37;;;28.00;99.90;;;;;;5016714;28;20416;-78
2022/06/04 11:46:00;;;;;;;5.60;4.73;;;28.10;99.90;;;;;;5016710;28;20682;-78
2022/06/04 11:48:47;;;;;;;5.50;4.53;;;28.20;99.90;;;;;;5015981;28;20470;-80
2022/06/04 11:51:49;;;;;;;4.60;4.20;;;28.30;99.90;;;;;;5014253;28;20463;-81
2022/06/04 11:54:20;;;;;;;4.97;4.43;;;28.30;99.90;;;;;;5015457;28;21189;-78
2022/06/04 11:57:15;;;;;;;6.30;5.07;;;28.40;99.90;;;;;;4998055;28;20506;-77
2022/06/04 11:59:59;;;;;;;5.97;5.20;;;28.60;99.90;;;;;;5015918;28;20490;-78
2022/06/04 12:02:50;;;;;;;4.80;4.30;;;29.00;99.90;;;;;;5015832;28;20408;-78
2022/06/04 12:05:34;;;;;;;5.77;5.27;;;29.20;99.90;;;;;;5015476;28;20518;-78
2022/06/04 12:08:04;;;;;;;5.07;4.57;;;29.40;99.90;;;;;;5015563;28;21000;-78
2022/06/04 12:11:02;;;;;;;8.30;4.83;;;29.40;99.60;;;;;;4997970;28;20459;-78
2022/06/04 12:13:45;;;;;;;4.80;4.30;;;29.60;99.10;;;;;;5016474;28;20435;-77
2022/06/04 12:16:29;;;;;;;6.80;5.57;;;29.60;97.10;;;;;;4996846;28;20420;-79
2022/06/04 12:24:15;;;;;;;5.73;5.13;;;29.40;95.50;;;;;;5015257;28;20435;-78
2022/06/04 12:25:10;;;;;;;5.63;5.13;;;29.20;97.80;;;;;;5015156;28;20419;-78
2022/06/04 12:27:38;;;;;;;5.77;4.77;;;29.20;99.90;;;;;;5014826;28;20431;-78
2022/06/04 12:30:17;;;;;;;4.97;4.47;;;29.10;99.90;;;;;;5015080;28;20456;-78
2022/06/04 12:32:44;;;;;;;8.40;4.80;;;29.10;99.90;;;;;;5015267;28;20408;-78
2022/06/04 12:35:11;;;;;;;5.00;4.50;;;29.10;99.90;;;;;;5015360;28;20414;-77
2022/06/04 12:37:40;;;;;;;5.97;4.80;;;29.20;99.90;;;;;;5014845;28;20440;-78
2022/06/04 12:40:38;;;;;;;5.57;4.97;;;29.00;99.60;;;;;;5015448;28;20436;-78
2022/06/04 12:43:18;;;;;;;6.17;4.97;;;28.90;99.90;;;;;;4971181;28;20538;-78
2022/06/04 12:45:47;;;;;;;7.53;4.97;;;29.20;99.90;;;;;;5014027;28;20451;-78
2022/06/04 12:48:53;;;;;;;5.50;5.00;;;29.40;99.90;;;;;;4996173;28;20832;-78
2022/06/04 12:51:22;;;;;;;5.33;4.80;;;29.30;99.90;;;;;;4975195;28;20479;-78
2022/06/04 12:54:02;;;;;;;5.70;5.07;;;29.40;99.90;;;;;;5014549;28;20451;-78
2022/06/04 12:56:33;;;;;;;5.40;4.80;;;29.80;99.90;;;;;;5014329;28;20411;-78
2022/06/04 12:59:01;;;;;;;6.57;4.47;;;30.20;99.80;;;;;;5014554;28;20836;-78
2022/06/04 13:01:29;;;;;;;5.43;4.77;;;30.20;99.60;;;;;;5015157;28;20487;-78
2022/06/04 13:04:10;;;;;;;5.73;5.13;;;30.30;99.70;;;;;;5017415;28;20451;-78
2022/06/04 13:06:46;;;;;;;6.10;5.33;;;30.00;96.80;;;;;;5017996;28;20416;-78
2022/06/04 13:09:31;;;;;;;6.57;4.70;;;29.80;98.00;;;;;;5017593;28;20419;-78
2022/06/04 13:12:14;;;;;;;5.30;4.80;;;29.60;97.40;;;;;;5017615;28;20474;-77
2022/06/04 13:14:55;;;;;;;6.30;3.87;;;29.50;98.00;;;;;;5018001;28;20408;-78
2022/06/04 13:17:45;;;;;;;9.40;5.27;;;29.60;97.70;;;;;;5017103;28;20499;-77
2022/06/04 13:20:38;;;;;;;8.00;5.20;;;29.90;99.90;;;;;;5017989;28;20412;-78
2022/06/04 13:23:24;;;;;;;5.33;4.83;;;30.50;98.70;;;;;;4999790;28;20444;-78
2022/06/04 13:26:15;;;;;;;7.27;4.90;;;30.80;99.10;;;;;;5017193;28;20435;-78
2022/06/04 13:28:45;;;;;;;5.90;5.27;;;31.50;96.50;;;;;;4983620;28;20440;-78
2022/06/04 13:31:27;;;;;;;5.60;5.10;;;31.90;94.90;;;;;;5018023;28;20458;-77
2022/06/04 13:33:54;;;;;;;5.20;4.70;;;32.00;94.20;;;;;;5017627;28;20412;-78
2022/06/04 13:36:29;;;;;;;5.30;4.50;;;31.90;93.30;;;;;;5016975;28;20423;-78
2022/06/04 13:38:58;;;;;;;5.03;4.53;;;31.60;93.40;;;;;;5016447;28;20470;-78